KRIL

Rifle Garfield County Airport

Rifle, Colorado, USA
METAR KRIL 201653Z AUTO 09004KT 10SM CLR 11/00 A3047 RMK AO2 SLP298 T01060000
Observed Flight Rules
Oct-20 @ 16:53 UTC (32 minutes ago) Visual Flight Rules
Wind Visibility Clouds
90° at 4 knots 10 miles
  • Clear skies
Temperatures Readings
Current 11°C / 52°F
Dewpoint 0°C / 32°F
Humidity 47%
Altimeter 30.47" Hg
Pressure 1029.8 hPa
Elevation 1678
METAR KRIL 201653Z AUTO 09004KT 10SM CLR 11/00 A3047 RMK AO2 SLP298 T01060000
Observed Flight Rules
Oct-20 @ 16:53 UTC
(32 minutes ago)
VFR
Wind Visibility
90° at 4 knots 10 miles
Clouds
  • Clear skies
Temperature Dewpoint
11°C / 52°F 0°C / 32°F
Humidity Altimeter Pressure
47% 30.47" Hg 1029.8 hPa